createdAt,value
2022-08-11T00:01:49.033Z,5.28
2022-08-11T00:04:16.383Z,4.80
2022-08-11T00:06:44.951Z,4.80
2022-08-11T00:09:12.716Z,4.85
2022-08-11T00:11:41.128Z,5.10
2022-08-11T00:14:37.140Z,5.10
2022-08-11T00:17:08.754Z,5.43
2022-08-11T00:20:14.977Z,5.70
2022-08-11T00:22:32.908Z,4.63
2022-08-11T00:25:02.625Z,5.43
2022-08-11T00:27:36.669Z,5.63
2022-08-11T00:30:04.463Z,5.40
2022-08-11T00:32:31.405Z,5.43
2022-08-11T00:35:55.898Z,5.38
2022-08-11T00:37:49.780Z,5.43
2022-08-11T00:40:27.909Z,5.40
2022-08-11T00:43:19.803Z,5.38
2022-08-11T00:46:06.366Z,5.00
2022-08-11T00:48:41.953Z,4.63
2022-08-11T00:51:17.603Z,5.45
2022-08-11T00:53:43.926Z,4.97
2022-08-11T00:56:10.241Z,4.72
2022-08-11T00:58:55.487Z,5.03
2022-08-11T01:01:32.980Z,5.07
2022-08-11T01:04:17.567Z,4.57
2022-08-11T01:06:49.957Z,4.82
2022-08-11T01:09:36.325Z,4.75
2022-08-11T01:12:14.709Z,4.72
2022-08-11T01:14:59.433Z,4.65
2022-08-11T01:17:45.528Z,4.93
2022-08-11T01:23:04.294Z,4.93
2022-08-11T01:25:57.610Z,4.78
2022-08-11T01:28:42.883Z,4.75
2022-08-11T01:31:09.259Z,4.90
2022-08-11T01:33:35.634Z,4.65
2022-08-11T01:36:23.434Z,4.90
2022-08-11T01:39:08.568Z,4.68
2022-08-11T01:41:53.523Z,4.68
2022-08-11T01:44:38.275Z,4.60
2022-08-11T01:47:51.097Z,5.10
2022-08-11T01:50:38.796Z,4.70
2022-08-11T01:53:05.331Z,5.10
2022-08-11T01:55:37.727Z,4.65
2022-08-11T01:58:06.849Z,4.57
2022-08-11T02:00:40.434Z,4.55
2022-08-11T02:03:12.991Z,4.80
2022-08-11T02:06:25.815Z,4.57
2022-08-11T02:08:55.796Z,5.22
2022-08-11T02:11:31.694Z,5.00
2022-08-11T02:14:11.965Z,4.82
2022-08-11T02:16:57.190Z,5.40
2022-08-11T02:19:45.390Z,5.03
2022-08-11T02:22:50.721Z,5.00
2022-08-11T02:25:23.073Z,4.75
2022-08-11T02:28:11.661Z,4.88
2022-08-11T02:30:44.628Z,5.07
2022-08-11T02:33:24.620Z,5.13
2022-08-11T02:36:09.424Z,4.53
2022-08-11T02:38:54.727Z,4.55
2022-08-11T02:41:46.412Z,4.83
2022-08-11T02:44:33.093Z,4.68
2022-08-11T02:47:15.055Z,4.95
2022-08-11T02:50:00.044Z,4.60
2022-08-11T02:52:45.362Z,5.00
2022-08-11T02:55:50.940Z,4.97
2022-08-11T02:58:16.518Z,4.55
2022-08-11T03:00:50.840Z,4.68
2022-08-11T03:03:22.717Z,5.15
2022-08-11T03:05:58.164Z,4.80
2022-08-11T03:08:46.003Z,5.60
2022-08-11T03:11:34.063Z,4.68
2022-08-11T03:14:37.851Z,4.75
2022-08-11T03:17:20.182Z,5.22
2022-08-11T03:19:53.425Z,5.30
2022-08-11T03:22:42.612Z,5.25
2022-08-11T03:25:12.847Z,4.75
2022-08-11T03:27:48.866Z,5.28
2022-08-11T03:33:19.245Z,4.82
2022-08-11T03:35:53.722Z,5.20
2022-08-11T03:38:30.593Z,4.82
2022-08-11T03:42:02.367Z,5.10
2022-08-11T03:44:22.799Z,4.78
2022-08-11T03:47:08.096Z,5.03
2022-08-11T03:49:39.201Z,4.60
2022-08-11T03:52:16.604Z,4.80
2022-08-11T03:54:50.578Z,4.85
2022-08-11T03:57:21.082Z,5.20
2022-08-11T03:59:59.550Z,5.13
2022-08-11T04:02:38.037Z,5.10
2022-08-11T04:05:11.234Z,5.22
2022-08-11T04:07:46.593Z,5.70
2022-08-11T04:10:51.758Z,5.00
2022-08-11T04:13:39.386Z,5.70
2022-08-11T04:16:15.564Z,5.18
2022-08-11T04:19:00.594Z,5.55
2022-08-11T04:21:45.869Z,4.68
2022-08-11T04:24:37.877Z,5.18
2022-08-11T04:27:20.727Z,5.22
2022-08-11T04:30:03.606Z,5.28
2022-08-11T04:32:32.071Z,5.22
2022-08-11T04:35:11.654Z,5.47
2022-08-11T04:37:56.498Z,5.45
2022-08-11T04:40:35.156Z,5.35
2022-08-11T04:43:22.925Z,5.40
2022-08-11T04:46:01.540Z,5.07
2022-08-11T04:49:05.864Z,5.45
2022-08-11T04:52:00.312Z,5.32
2022-08-11T04:54:50.201Z,5.82
2022-08-11T04:57:47.559Z,5.13
2022-08-11T05:00:32.847Z,5.68
2022-08-11T05:03:05.108Z,5.23
2022-08-11T05:05:56.676Z,4.90
2022-08-11T05:08:43.086Z,5.60
2022-08-11T05:16:42.444Z,5.38
2022-08-11T05:19:33.944Z,5.70
2022-08-11T05:22:19.403Z,5.00
2022-08-11T05:25:05.217Z,4.82
2022-08-11T05:28:04.416Z,4.35
2022-08-11T05:30:49.997Z,4.30
2022-08-11T05:33:40.627Z,4.85
2022-08-11T05:36:07.224Z,4.38
2022-08-11T05:38:53.709Z,3.90
2022-08-11T05:41:42.890Z,3.72
2022-08-11T05:44:28.891Z,3.80
2022-08-11T05:47:14.128Z,3.60
2022-08-11T05:49:59.285Z,3.75
2022-08-11T05:52:49.277Z,3.40
2022-08-11T05:56:03.312Z,3.50
2022-08-11T05:58:41.743Z,3.20
2022-08-11T06:01:09.623Z,2.88
2022-08-11T06:03:58.470Z,3.03
2022-08-11T06:06:25.542Z,3.38
2022-08-11T06:08:55.202Z,3.25
2022-08-11T06:11:43.688Z,3.22
2022-08-11T06:14:09.318Z,2.80
2022-08-11T06:16:35.811Z,3.22
2022-08-11T06:19:05.438Z,2.58
2022-08-11T06:21:36.093Z,2.85
2022-08-11T06:24:11.697Z,2.92
2022-08-11T06:26:55.161Z,2.67
2022-08-11T06:29:38.212Z,2.60
2022-08-11T06:32:13.717Z,2.70
2022-08-11T06:34:49.258Z,2.53
2022-08-11T06:37:18.950Z,2.67
2022-08-11T06:39:49.280Z,2.88
2022-08-11T06:42:34.078Z,2.80
2022-08-11T06:45:05.247Z,2.50
2022-08-11T06:47:31.892Z,2.38
2022-08-11T06:50:17.701Z,2.45
2022-08-11T06:52:46.513Z,2.60
2022-08-11T06:55:57.870Z,2.30
2022-08-11T06:58:46.906Z,2.70
2022-08-11T07:01:15.732Z,2.38
2022-08-11T07:03:47.109Z,2.47
2022-08-11T07:06:50.910Z,2.38
2022-08-11T07:09:46.356Z,2.38
2022-08-11T07:12:50.239Z,2.50
2022-08-11T07:16:09.098Z,2.65
2022-08-11T07:18:44.707Z,2.50
2022-08-11T07:22:00.921Z,2.30
2022-08-11T07:25:01.555Z,2.20
2022-08-11T07:27:50.353Z,1.92
2022-08-11T07:30:17.376Z,2.00
2022-08-11T07:32:52.408Z,1.90
2022-08-11T07:35:36.022Z,2.20
2022-08-11T07:38:07.045Z,2.20
2022-08-11T07:40:34.705Z,1.85
2022-08-11T07:43:01.451Z,2.20
2022-08-11T07:45:46.941Z,2.08
2022-08-11T07:48:33.425Z,2.13
2022-08-11T07:51:19.539Z,1.85
2022-08-11T07:56:39.535Z,2.58
2022-08-11T08:00:00.407Z,3.00
2022-08-11T08:02:36.061Z,2.30
2022-08-11T08:05:21.266Z,2.22
2022-08-11T08:08:06.553Z,1.90
2022-08-11T08:10:51.445Z,2.10
2022-08-11T08:13:37.045Z,2.15
2022-08-11T08:16:21.961Z,2.50
2022-08-11T08:18:48.476Z,1.95
2022-08-11T08:21:15.625Z,1.83
2022-08-11T08:23:44.169Z,2.10
2022-08-11T08:26:32.214Z,2.42
2022-08-11T08:29:21.249Z,2.17
2022-08-11T08:31:51.070Z,2.00
2022-08-11T08:34:17.924Z,2.03
2022-08-11T08:36:48.203Z,2.10
2022-08-11T08:39:16.490Z,2.05
2022-08-11T08:41:43.169Z,2.20
2022-08-11T08:44:36.702Z,1.92
2022-08-11T08:46:58.611Z,2.00
2022-08-11T08:49:40.590Z,2.10
2022-08-11T08:52:28.054Z,1.90
2022-08-11T08:54:56.974Z,2.15
2022-08-11T08:57:24.087Z,1.90
2022-08-11T08:59:51.727Z,1.90
2022-08-11T09:02:20.528Z,2.20
2022-08-11T09:05:02.284Z,2.20
2022-08-11T09:07:32.641Z,1.90
2022-08-11T09:10:06.735Z,2.00
2022-08-11T09:12:36.439Z,2.08
2022-08-11T09:15:05.947Z,2.22
2022-08-11T09:17:35.424Z,1.95
2022-08-11T09:20:12.824Z,2.35
2022-08-11T09:23:35.221Z,2.13
2022-08-11T09:28:31.647Z,1.95
2022-08-11T09:31:01.068Z,2.08
2022-08-11T09:33:28.475Z,1.92
2022-08-11T09:35:55.281Z,1.88
2022-08-11T09:38:49.287Z,1.98
2022-08-11T09:41:17.184Z,1.70
2022-08-11T09:44:04.545Z,1.75
2022-08-11T09:46:32.766Z,1.92
2022-08-11T09:48:59.996Z,2.00
2022-08-11T09:51:29.734Z,1.90
2022-08-11T09:54:03.805Z,1.98
2022-08-11T09:56:49.891Z,2.03
2022-08-11T09:59:17.834Z,2.28
2022-08-11T10:01:47.299Z,2.22
2022-08-11T10:04:18.282Z,2.20
2022-08-11T10:07:05.313Z,2.17
2022-08-11T10:09:44.193Z,2.00
2022-08-11T10:12:24.605Z,2.22
2022-08-11T10:15:14.508Z,2.15
2022-08-11T10:18:02.932Z,2.00
2022-08-11T10:20:33.718Z,1.70
2022-08-11T10:23:21.971Z,1.95
2022-08-11T10:26:07.172Z,2.20
2022-08-11T10:28:50.022Z,2.00
2022-08-11T10:31:57.814Z,1.90
2022-08-11T10:34:29.091Z,1.90
2022-08-11T10:36:55.928Z,2.00
2022-08-11T10:39:22.796Z,1.70
2022-08-11T10:42:12.230Z,1.90
2022-08-11T10:44:42.341Z,1.65
2022-08-11T10:47:29.250Z,1.80
2022-08-11T10:50:14.923Z,1.80
2022-08-11T10:55:45.162Z,2.10
2022-08-11T10:58:30.960Z,2.20
2022-08-11T11:00:59.119Z,1.90
2022-08-11T11:03:26.543Z,1.95
2022-08-11T11:06:12.614Z,1.92
2022-08-11T11:08:53.325Z,1.85
2022-08-11T11:11:21.264Z,1.83
2022-08-11T11:14:07.953Z,1.88
2022-08-11T11:16:54.288Z,1.70
2022-08-11T11:19:24.198Z,2.00
2022-08-11T11:21:52.787Z,2.28
2022-08-11T11:24:37.396Z,2.10
2022-08-11T11:27:07.849Z,2.10
2022-08-11T11:29:34.256Z,2.22
2022-08-11T11:32:22.405Z,2.30
2022-08-11T11:34:53.624Z,1.98
2022-08-11T11:37:22.375Z,2.10
2022-08-11T11:39:48.863Z,2.00
2022-08-11T11:42:16.618Z,1.73
2022-08-11T11:44:44.657Z,2.03
2022-08-11T11:47:15.574Z,2.40
2022-08-11T11:49:44.062Z,2.22
2022-08-11T11:52:17.288Z,1.98
2022-08-11T11:54:43.897Z,2.15
2022-08-11T11:57:30.292Z,2.20
2022-08-11T12:00:15.391Z,2.20
2022-08-11T12:02:43.009Z,2.10
2022-08-11T12:05:10.206Z,2.30
2022-08-11T12:07:56.835Z,2.13
2022-08-11T12:10:32.193Z,2.07
2022-08-11T12:13:21.053Z,2.05
2022-08-11T12:16:31.742Z,2.10
2022-08-11T12:18:35.251Z,2.30
2022-08-11T12:21:02.871Z,1.90
2022-08-11T12:23:49.617Z,2.10
2022-08-11T12:26:34.969Z,2.30
2022-08-11T12:29:01.824Z,1.85
2022-08-11T12:31:32.036Z,1.98
2022-08-11T12:34:05.645Z,2.08
2022-08-11T12:36:36.124Z,2.03
2022-08-11T12:39:06.143Z,1.85
2022-08-11T12:42:08.364Z,1.70
2022-08-11T12:44:55.611Z,1.90
2022-08-11T12:47:22.033Z,2.03
2022-08-11T12:50:08.006Z,1.80
2022-08-11T12:52:54.079Z,1.80
2022-08-11T12:55:42.484Z,1.83
2022-08-11T12:58:29.336Z,1.73
2022-08-11T13:01:15.092Z,2.10
2022-08-11T13:04:00.262Z,1.73
2022-08-11T13:06:27.132Z,1.92
2022-08-11T13:09:01.054Z,2.00
2022-08-11T13:11:55.724Z,1.70
2022-08-11T13:14:23.832Z,1.80
2022-08-11T13:17:11.035Z,1.90
2022-08-11T13:19:37.868Z,1.83
2022-08-11T13:22:07.502Z,1.90
2022-08-11T13:24:34.355Z,1.70
2022-08-11T13:27:02.799Z,1.73
2022-08-11T13:29:29.579Z,1.80
2022-08-11T13:31:58.590Z,1.67
2022-08-11T13:34:26.790Z,1.60
2022-08-11T13:36:54.626Z,1.75
2022-08-11T13:39:24.497Z,1.98
2022-08-11T13:41:53.202Z,1.88
2022-08-11T13:44:25.346Z,1.80
2022-08-11T13:46:53.135Z,1.90
2022-08-11T13:49:20.803Z,1.80
2022-08-11T13:51:47.370Z,1.73
2022-08-11T13:54:18.935Z,1.80
2022-08-11T13:56:46.693Z,2.03
2022-08-11T13:59:14.386Z,1.90
2022-08-11T14:02:20.931Z,1.80
2022-08-11T14:04:40.988Z,1.58
2022-08-11T14:07:09.002Z,1.55
2022-08-11T14:09:37.558Z,1.83
2022-08-11T14:12:26.937Z,1.75
2022-08-11T14:15:01.300Z,1.75
2022-08-11T14:17:47.768Z,1.90
2022-08-11T14:20:38.013Z,1.70
2022-08-11T14:23:03.851Z,1.80
2022-08-11T14:25:59.380Z,1.75
2022-08-11T14:28:31.606Z,1.60
2022-08-11T14:31:02.060Z,1.75
2022-08-11T14:33:58.154Z,1.98
2022-08-11T14:36:15.543Z,1.50
2022-08-11T14:38:42.243Z,1.30
2022-08-11T14:41:27.860Z,1.48
2022-08-11T14:44:14.879Z,1.50
2022-08-11T14:47:01.173Z,1.33
2022-08-11T14:49:28.302Z,1.30
2022-08-11T14:51:55.672Z,1.38
2022-08-11T14:54:43.728Z,1.40
2022-08-11T14:57:10.274Z,1.52
2022-08-11T14:59:37.778Z,1.50
2022-08-11T15:02:23.440Z,1.40
2022-08-11T15:04:53.466Z,1.77
2022-08-11T15:07:29.385Z,1.60
2022-08-11T15:10:12.721Z,1.40
2022-08-11T15:12:42.007Z,1.33
2022-08-11T15:15:27.579Z,1.45
2022-08-11T15:17:56.764Z,1.20
2022-08-11T15:20:42.607Z,1.42
2022-08-11T15:23:28.037Z,1.20
2022-08-11T15:28:56.988Z,1.20
2022-08-11T15:31:27.473Z,1.30
2022-08-11T15:34:13.867Z,1.40
2022-08-11T15:37:05.762Z,1.30
2022-08-11T15:40:23.881Z,1.20
2022-08-11T15:43:19.110Z,1.30
2022-08-11T15:45:50.189Z,1.25
2022-08-11T15:48:24.258Z,1.23
2022-08-11T15:50:53.671Z,1.33
2022-08-11T15:53:29.216Z,1.23
2022-08-11T15:55:56.395Z,1.42
2022-08-11T15:58:42.521Z,1.17
2022-08-11T16:01:28.304Z,1.13
2022-08-11T16:04:13.016Z,1.20
2022-08-11T16:06:44.102Z,1.23
2022-08-11T16:09:18.278Z,1.40
2022-08-11T16:11:45.892Z,1.17
2022-08-11T16:14:31.093Z,1.00
2022-08-11T16:16:58.714Z,1.20
2022-08-11T16:19:27.511Z,1.33
2022-08-11T16:21:55.302Z,1.30
2022-08-11T16:27:01.288Z,1.00
2022-08-11T16:27:13.875Z,1.30
2022-08-11T16:29:43.671Z,1.20
2022-08-11T16:32:18.344Z,1.10
2022-08-11T16:35:04.509Z,1.23
2022-08-11T16:37:52.165Z,1.10
2022-08-11T16:40:19.541Z,1.30
2022-08-11T16:43:10.599Z,1.25
2022-08-11T16:45:57.236Z,1.48
2022-08-11T16:51:05.003Z,1.20
2022-08-11T16:53:54.687Z,1.08
2022-08-11T16:56:21.053Z,1.40
2022-08-11T16:59:10.009Z,1.30
2022-08-11T17:01:37.814Z,1.23
2022-08-11T17:04:38.057Z,1.48
2022-08-11T17:07:41.924Z,1.20
2022-08-11T17:10:51.214Z,1.30
2022-08-11T17:13:21.668Z,1.20
2022-08-11T17:16:07.924Z,1.40
2022-08-11T17:18:49.615Z,1.33
2022-08-11T17:21:18.640Z,1.13
2022-08-11T17:23:48.100Z,1.35
2022-08-11T17:26:16.643Z,1.38
2022-08-11T17:28:44.683Z,1.30
2022-08-11T17:31:31.534Z,1.50
2022-08-11T17:34:16.994Z,1.70
2022-08-11T17:36:45.769Z,1.63
2022-08-11T17:39:16.229Z,1.60
2022-08-11T17:42:02.734Z,1.88
2022-08-11T17:44:50.888Z,1.42
2022-08-11T17:47:36.537Z,1.45
2022-08-11T17:50:14.547Z,1.95
2022-08-11T17:53:03.686Z,1.55
2022-08-11T17:55:52.362Z,1.60
2022-08-11T17:58:39.443Z,1.60
2022-08-11T18:03:39.685Z,1.40
2022-08-11T18:06:06.748Z,1.60
2022-08-11T18:09:03.052Z,1.45
2022-08-11T18:12:06.467Z,1.50
2022-08-11T18:14:55.945Z,1.55
2022-08-11T18:20:26.301Z,1.67
2022-08-11T18:23:12.569Z,1.43
2022-08-11T18:25:58.904Z,1.92
2022-08-11T18:28:46.437Z,1.33
2022-08-11T18:31:33.290Z,1.55
2022-08-11T18:34:23.076Z,1.55
2022-08-11T18:37:20.601Z,1.73
2022-08-11T18:40:12.284Z,1.83
2022-08-11T18:42:58.979Z,1.80
2022-08-11T18:45:45.652Z,1.67
2022-08-11T18:48:34.016Z,1.85
2022-08-11T18:51:30.824Z,1.90
2022-08-11T18:54:22.798Z,2.40
2022-08-11T18:57:08.284Z,1.98
2022-08-11T18:59:55.153Z,2.40
2022-08-11T19:02:48.405Z,2.00
2022-08-11T19:06:05.922Z,2.40
2022-08-11T19:08:41.691Z,4.10
2022-08-11T19:11:28.282Z,80.43
2022-08-11T19:14:14.072Z,95.95
2022-08-11T19:16:59.971Z,23.43
2022-08-11T19:19:47.761Z,8.88
2022-08-11T19:22:33.769Z,3.88
2022-08-11T19:25:25.194Z,15.77
2022-08-11T19:28:11.346Z,11.93
2022-08-11T19:30:56.676Z,17.98
2022-08-11T19:34:02.890Z,10.10
2022-08-11T19:36:47.462Z,23.65
2022-08-11T19:39:32.961Z,38.33
2022-08-11T19:42:18.257Z,46.75
2022-08-11T19:45:03.354Z,25.67
2022-08-11T19:47:48.705Z,20.55
2022-08-11T19:50:33.464Z,29.40
2022-08-11T19:53:23.764Z,25.38
2022-08-11T19:56:10.534Z,13.98
2022-08-11T19:58:56.642Z,11.65
2022-08-11T20:04:46.409Z,5.70
2022-08-11T20:07:36.535Z,9.60
2022-08-11T20:10:23.068Z,11.07
2022-08-11T20:13:08.825Z,15.48
2022-08-11T20:15:57.554Z,19.25
2022-08-11T20:18:43.029Z,10.50
2022-08-11T20:21:31.722Z,21.25
2022-08-11T20:24:19.712Z,20.20
2022-08-11T20:27:05.014Z,4.88
2022-08-11T20:29:50.914Z,2.60
2022-08-11T20:32:35.999Z,2.25
2022-08-11T20:35:22.400Z,2.47
2022-08-11T20:38:13.509Z,1.70
2022-08-11T20:40:59.086Z,1.60
2022-08-11T20:44:05.831Z,1.90
2022-08-11T20:46:49.265Z,1.80
2022-08-11T20:49:44.908Z,1.67
2022-08-11T20:52:37.577Z,1.95
2022-08-11T20:55:26.080Z,1.80
2022-08-11T20:58:42.286Z,1.98
2022-08-11T21:01:38.817Z,1.80
2022-08-11T21:04:26.228Z,1.80
2022-08-11T21:07:11.506Z,1.77
2022-08-11T21:10:09.837Z,2.20
2022-08-11T21:12:56.996Z,2.03
2022-08-11T21:16:01.819Z,2.00
2022-08-11T21:18:49.243Z,1.77
2022-08-11T21:21:45.422Z,1.80
2022-08-11T21:24:32.909Z,2.10
2022-08-11T21:27:24.880Z,1.70
2022-08-11T21:30:10.552Z,1.90
2022-08-11T21:32:55.374Z,1.98
2022-08-11T21:35:45.293Z,2.20
2022-08-11T21:38:31.005Z,1.95
2022-08-11T21:41:16.809Z,2.30
2022-08-11T21:44:02.647Z,2.22
2022-08-11T21:46:48.487Z,2.10
2022-08-11T21:49:33.998Z,2.15
2022-08-11T21:52:18.825Z,2.20
2022-08-11T21:55:03.839Z,2.92
2022-08-11T21:57:50.011Z,2.10
2022-08-11T22:00:35.789Z,2.30
2022-08-11T22:03:21.378Z,2.13
2022-08-11T22:06:07.116Z,2.15
2022-08-11T22:08:52.097Z,2.17
2022-08-11T22:11:38.378Z,2.10
2022-08-11T22:14:23.810Z,2.20
2022-08-11T22:17:09.207Z,2.17
2022-08-11T22:19:55.594Z,3.10
2022-08-11T22:22:48.272Z,2.33
2022-08-11T22:25:39.149Z,2.40
2022-08-11T22:28:35.909Z,2.78
2022-08-11T22:31:21.234Z,2.83
2022-08-11T22:34:06.281Z,2.37
2022-08-11T22:36:52.241Z,1.90
2022-08-11T22:39:37.710Z,2.40
2022-08-11T22:42:32.254Z,2.00
2022-08-11T22:45:19.763Z,2.10
2022-08-11T22:48:06.075Z,2.55
2022-08-11T22:50:51.484Z,2.10
2022-08-11T22:53:57.368Z,2.60
2022-08-11T22:56:42.262Z,2.42
2022-08-11T22:59:27.042Z,2.17
2022-08-11T23:02:12.319Z,2.05
2022-08-11T23:04:57.922Z,2.30
2022-08-11T23:07:50.404Z,2.38
2022-08-11T23:10:40.077Z,2.60
2022-08-11T23:13:26.459Z,2.20
2022-08-11T23:16:13.080Z,2.30
2022-08-11T23:18:58.903Z,2.25
2022-08-11T23:21:45.736Z,2.40
2022-08-11T23:24:31.486Z,2.10
2022-08-11T23:27:17.273Z,2.37
2022-08-11T23:30:03.203Z,2.28
2022-08-11T23:32:49.540Z,2.30
2022-08-11T23:35:38.110Z,2.33
2022-08-11T23:38:25.709Z,2.00
2022-08-11T23:41:11.666Z,2.03
2022-08-11T23:43:56.955Z,2.67
2022-08-11T23:46:43.937Z,2.00
2022-08-11T23:49:29.210Z,2.28
2022-08-11T23:52:15.042Z,2.25
2022-08-11T23:55:00.426Z,2.50
2022-08-11T23:57:49.310Z,2.13
